sensor_id;sensor_type;location;lat;lon;timestamp;pressure;altitude;pressure_sealevel;temperature;humidity
34586;BME280;20816;50.950;11.108;2023-05-24T00:02:17;98871.00;;;8.45;100.00
34586;BME280;20816;50.950;11.108;2023-05-24T00:04:45;98885.88;;;8.38;100.00
34586;BME280;20816;50.950;11.108;2023-05-24T00:07:12;98879.84;;;8.27;100.00
34586;BME280;20816;50.950;11.108;2023-05-24T00:09:39;98879.00;;;8.25;100.00
34586;BME280;20816;50.950;11.108;2023-05-24T00:12:06;98880.69;;;8.29;100.00
34586;BME280;20816;50.950;11.108;2023-05-24T00:14:33;98885.13;;;8.24;100.00
34586;BME280;20816;50.950;11.108;2023-05-24T00:16:59;98873.78;;;8.23;100.00
34586;BME280;20816;50.950;11.108;2023-05-24T00:19:26;98879.97;;;8.14;100.00
34586;BME280;20816;50.950;11.108;2023-05-24T00:21:53;98874.78;;;8.07;100.00
34586;BME280;20816;50.950;11.108;2023-05-24T00:24:19;98880.88;;;8.04;100.00
34586;BME280;20816;50.950;11.108;2023-05-24T00:26:46;98884.41;;;8.00;100.00
34586;BME280;20816;50.950;11.108;2023-05-24T00:29:13;98885.22;;;8.10;100.00
34586;BME280;20816;50.950;11.108;2023-05-24T00:31:40;98881.75;;;8.05;100.00
34586;BME280;20816;50.950;11.108;2023-05-24T00:34:07;98880.03;;;8.04;100.00
34586;BME280;20816;50.950;11.108;2023-05-24T00:36:34;98888.78;;;8.01;100.00
34586;BME280;20816;50.950;11.108;2023-05-24T00:39:03;98884.38;;;8.05;100.00
34586;BME280;20816;50.950;11.108;2023-05-24T00:41:30;98885.22;;;8.08;100.00
34586;BME280;20816;50.950;11.108;2023-05-24T00:43:57;98880.06;;;7.99;100.00
34586;BME280;20816;50.950;11.108;2023-05-24T00:46:27;98885.31;;;7.99;100.00
34586;BME280;20816;50.950;11.108;2023-05-24T00:48:55;98888.78;;;7.97;100.00
34586;BME280;20816;50.950;11.108;2023-05-24T00:51:23;98881.03;;;7.86;100.00
34586;BME280;20816;50.950;11.108;2023-05-24T00:53:52;98885.41;;;7.82;100.00
34586;BME280;20816;50.950;11.108;2023-05-24T00:56:19;98882.78;;;7.81;100.00
34586;BME280;20816;50.950;11.108;2023-05-24T00:58:47;98879.31;;;7.79;100.00
34586;BME280;20816;50.950;11.108;2023-05-24T01:01:15;98887.16;;;7.80;100.00
34586;BME280;20816;50.950;11.108;2023-05-24T01:03:42;98876.69;;;7.80;100.00
34586;BME280;20816;50.950;11.108;2023-05-24T01:06:12;98881.06;;;7.83;100.00
34586;BME280;20816;50.950;11.108;2023-05-24T01:11:54;98886.22;;;7.92;100.00
34586;BME280;20816;50.950;11.108;2023-05-24T01:17:20;98889.75;;;7.83;100.00
34586;BME280;20816;50.950;11.108;2023-05-24T01:19:57;98888.91;;;7.78;100.00
34586;BME280;20816;50.950;11.108;2023-05-24T01:25:48;98889.75;;;7.85;100.00
34586;BME280;20816;50.950;11.108;2023-05-24T01:28:19;98889.78;;;7.79;100.00
34586;BME280;20816;50.950;11.108;2023-05-24T01:30:47;98884.56;;;7.82;99.55
34586;BME280;20816;50.950;11.108;2023-05-24T01:33:14;98889.78;;;7.79;100.00
34586;BME280;20816;50.950;11.108;2023-05-24T01:35:41;98887.97;;;7.87;98.56
34586;BME280;20816;50.950;11.108;2023-05-24T01:38:08;98885.44;;;7.78;98.46
34586;BME280;20816;50.950;11.108;2023-05-24T01:40:38;98889.81;;;7.73;98.76
34586;BME280;20816;50.950;11.108;2023-05-24T01:43:17;98898.53;;;7.72;98.53
34586;BME280;20816;50.950;11.108;2023-05-24T01:46:02;98896.81;;;7.74;98.67
34586;BME280;20816;50.950;11.108;2023-05-24T01:48:58;98891.56;;;7.72;98.24
34586;BME280;20816;50.950;11.108;2023-05-24T01:51:31;98892.47;;;7.67;98.15
34586;BME280;20816;50.950;11.108;2023-05-24T01:54:00;98889.00;;;7.63;98.64
34586;BME280;20816;50.950;11.108;2023-05-24T01:56:29;98892.50;;;7.61;98.69
34586;BME280;20816;50.950;11.108;2023-05-24T01:58:58;98890.81;;;7.50;99.44
34586;BME280;20816;50.950;11.108;2023-05-24T02:01:27;98881.25;;;7.43;100.00
34586;BME280;20816;50.950;11.108;2023-05-24T02:03:54;98884.75;;;7.42;100.00
34586;BME280;20816;50.950;11.108;2023-05-24T02:06:20;98883.91;;;7.37;100.00
34586;BME280;20816;50.950;11.108;2023-05-24T02:08:47;98881.31;;;7.28;100.00
34586;BME280;20816;50.950;11.108;2023-05-24T02:11:14;98890.06;;;7.22;100.00
34586;BME280;20816;50.950;11.108;2023-05-24T02:13:40;98883.97;;;7.16;100.00
34586;BME280;20816;50.950;11.108;2023-05-24T02:16:07;98888.38;;;7.11;100.00
34586;BME280;20816;50.950;11.108;2023-05-24T02:18:36;98885.75;;;7.08;100.00
34586;BME280;20816;50.950;11.108;2023-05-24T02:21:03;98882.28;;;7.06;100.00
34586;BME280;20816;50.950;11.108;2023-05-24T02:23:29;98884.06;;;6.96;100.00
34586;BME280;20816;50.950;11.108;2023-05-24T02:25:57;98885.81;;;6.89;100.00
34586;BME280;20816;50.950;11.108;2023-05-24T02:28:23;98884.06;;;6.82;100.00
34586;BME280;20816;50.950;11.108;2023-05-24T02:30:50;98878.88;;;6.74;100.00
34586;BME280;20816;50.950;11.108;2023-05-24T02:33:17;98883.22;;;6.74;100.00
34586;BME280;20816;50.950;11.108;2023-05-24T02:35:43;98884.97;;;6.75;100.00
34586;BME280;20816;50.950;11.108;2023-05-24T02:38:10;98884.97;;;6.75;100.00
34586;BME280;20816;50.950;11.108;2023-05-24T02:40:37;98884.97;;;6.66;100.00
34586;BME280;20816;50.950;11.108;2023-05-24T02:43:03;98891.97;;;6.61;100.00
34586;BME280;20816;50.950;11.108;2023-05-24T02:45:30;98885.88;;;6.54;100.00
34586;BME280;20816;50.950;11.108;2023-05-24T02:47:57;98882.41;;;6.46;100.00
34586;BME280;20816;50.950;11.108;2023-05-24T02:50:24;98882.41;;;6.32;100.00
34586;BME280;20816;50.950;11.108;2023-05-24T02:52:50;98877.19;;;6.25;100.00
34586;BME280;20816;50.950;11.108;2023-05-24T02:55:17;98878.06;;;6.22;100.00
34586;BME280;20816;50.950;11.108;2023-05-24T02:57:44;98878.06;;;6.19;100.00
34586;BME280;20816;50.950;11.108;2023-05-24T03:00:11;98877.19;;;6.18;100.00
34586;BME280;20816;50.950;11.108;2023-05-24T03:02:38;98872.84;;;6.14;100.00
34586;BME280;20816;50.950;11.108;2023-05-24T03:05:07;98876.31;;;6.21;100.00
34586;BME280;20816;50.950;11.108;2023-05-24T03:07:34;98871.09;;;6.24;100.00
34586;BME280;20816;50.950;11.108;2023-05-24T03:10:01;98867.63;;;6.16;100.00
34586;BME280;20816;50.950;11.108;2023-05-24T03:12:27;98865.03;;;6.11;100.00
34586;BME280;20816;50.950;11.108;2023-05-24T03:14:54;98868.50;;;6.15;100.00
34586;BME280;20816;50.950;11.108;2023-05-24T03:17:21;98868.50;;;6.15;100.00
34586;BME280;20816;50.950;11.108;2023-05-24T03:19:48;98875.44;;;6.14;100.00
34586;BME280;20816;50.950;11.108;2023-05-24T03:22:14;98866.75;;;6.12;100.00
34586;BME280;20816;50.950;11.108;2023-05-24T03:24:41;98878.91;;;6.10;100.00
34586;BME280;20816;50.950;11.108;2023-05-24T03:27:08;98873.72;;;6.12;100.00
34586;BME280;20816;50.950;11.108;2023-05-24T03:29:34;98865.88;;;6.12;100.00
34586;BME280;20816;50.950;11.108;2023-05-24T03:32:01;98881.53;;;6.15;100.00
34586;BME280;20816;50.950;11.108;2023-05-24T03:34:28;98873.69;;;6.09;100.00
34586;BME280;20816;50.950;11.108;2023-05-24T03:36:55;98866.75;;;6.11;100.00
34586;BME280;20816;50.950;11.108;2023-05-24T03:39:22;98871.97;;;6.14;100.00
34586;BME280;20816;50.950;11.108;2023-05-24T03:41:49;98874.59;;;6.14;100.00
34586;BME280;20816;50.950;11.108;2023-05-24T03:44:15;98880.66;;;6.14;100.00
34586;BME280;20816;50.950;11.108;2023-05-24T03:46:42;98883.25;;;6.10;100.00
34586;BME280;20816;50.950;11.108;2023-05-24T03:49:09;98883.28;;;6.16;100.00
34586;BME280;20816;50.950;11.108;2023-05-24T03:51:35;98890.22;;;6.17;100.00
34586;BME280;20816;50.950;11.108;2023-05-24T03:54:02;98882.41;;;6.29;100.00
34586;BME280;20816;50.950;11.108;2023-05-24T03:56:29;98882.41;;;6.34;100.00
34586;BME280;20816;50.950;11.108;2023-05-24T03:58:55;98886.78;;;6.36;100.00
34586;BME280;20816;50.950;11.108;2023-05-24T04:01:26;98881.56;;;6.36;100.00
34586;BME280;20816;50.950;11.108;2023-05-24T04:04:00;98886.78;;;6.36;100.00
34586;BME280;20816;50.950;11.108;2023-05-24T04:06:27;98882.41;;;6.49;100.00
34586;BME280;20816;50.950;11.108;2023-05-24T04:08:56;98886.75;;;6.52;100.00
34586;BME280;20816;50.950;11.108;2023-05-24T04:11:23;98891.97;;;6.61;100.00
34586;BME280;20816;50.950;11.108;2023-05-24T04:13:54;98880.63;;;6.77;100.00
34586;BME280;20816;50.950;11.108;2023-05-24T04:16:26;98879.72;;;6.75;100.00
34586;BME280;20816;50.950;11.108;2023-05-24T04:18:54;98884.94;;;6.87;100.00
34586;BME280;20816;50.950;11.108;2023-05-24T04:21:21;98889.28;;;7.02;100.00
34586;BME280;20816;50.950;11.108;2023-05-24T04:23:48;98883.94;;;7.23;100.00
34586;BME280;20816;50.950;11.108;2023-05-24T04:26:15;98886.53;;;7.31;100.00
34586;BME280;20816;50.950;11.108;2023-05-24T04:28:43;98889.13;;;7.37;100.00
34586;BME280;20816;50.950;11.108;2023-05-24T04:31:11;98886.41;;;7.55;100.00
34586;BME280;20816;50.950;11.108;2023-05-24T04:33:37;98893.38;;;7.59;100.00
34586;BME280;20816;50.950;11.108;2023-05-24T04:36:05;98895.16;;;7.57;100.00
34586;BME280;20816;50.950;11.108;2023-05-24T04:38:33;98895.03;;;7.73;100.00
34586;BME280;20816;50.950;11.108;2023-05-24T04:41:01;98898.50;;;7.82;100.00
34586;BME280;20816;50.950;11.108;2023-05-24T04:43:28;98906.28;;;7.93;100.00
34586;BME280;20816;50.950;11.108;2023-05-24T04:45:55;98900.16;;;7.94;100.00
34586;BME280;20816;50.950;11.108;2023-05-24T04:48:22;98908.78;;;8.08;100.00
34586;BME280;20816;50.950;11.108;2023-05-24T04:50:50;98902.69;;;8.08;100.00
34586;BME280;20816;50.950;11.108;2023-05-24T04:53:19;98909.75;;;7.94;100.00
34586;BME280;20816;50.950;11.108;2023-05-24T04:55:46;98910.59;;;8.00;100.00
34586;BME280;20816;50.950;11.108;2023-05-24T04:58:13;98916.72;;;7.96;100.00
34586;BME280;20816;50.950;11.108;2023-05-24T05:00:42;98920.25;;;7.91;100.00
34586;BME280;20816;50.950;11.108;2023-05-24T05:03:09;98916.03;;;7.67;100.00
34586;BME280;20816;50.950;11.108;2023-05-24T05:05:36;98919.59;;;7.46;100.00
34586;BME280;20816;50.950;11.108;2023-05-24T05:08:03;98917.84;;;7.51;100.00
34586;BME280;20816;50.950;11.108;2023-05-24T05:10:30;98923.03;;;7.57;100.00
34586;BME280;20816;50.950;11.108;2023-05-24T05:12:56;98930.84;;;7.69;100.00
34586;BME280;20816;50.950;11.108;2023-05-24T05:15:23;98928.19;;;7.71;100.00
34586;BME280;20816;50.950;11.108;2023-05-24T05:17:50;98933.47;;;7.65;100.00
34586;BME280;20816;50.950;11.108;2023-05-24T05:20:17;98936.03;;;7.77;100.00
34586;BME280;20816;50.950;11.108;2023-05-24T05:22:47;98925.50;;;7.91;100.00
34586;BME280;20816;50.950;11.108;2023-05-24T05:25:14;98921.13;;;7.91;100.00
34586;BME280;20816;50.950;11.108;2023-05-24T05:27:42;98930.63;;;8.04;100.00
34586;BME280;20816;50.950;11.108;2023-05-24T05:30:09;98929.75;;;8.08;100.00
34586;BME280;20816;50.950;11.108;2023-05-24T05:32:35;98934.88;;;8.21;100.00
34586;BME280;20816;50.950;11.108;2023-05-24T05:35:03;98927.84;;;8.32;100.00
34586;BME280;20816;50.950;11.108;2023-05-24T05:37:30;98932.28;;;8.18;100.00
34586;BME280;20816;50.950;11.108;2023-05-24T05:39:57;98929.56;;;8.30;100.00
34586;BME280;20816;50.950;11.108;2023-05-24T05:42:23;98929.47;;;8.48;99.86
34586;BME280;20816;50.950;11.108;2023-05-24T05:44:50;98931.16;;;8.54;99.16
34586;BME280;20816;50.950;11.108;2023-05-24T05:47:18;98928.34;;;8.77;99.56
34586;BME280;20816;50.950;11.108;2023-05-24T05:49:45;98936.19;;;8.80;98.44
34586;BME280;20816;50.950;11.108;2023-05-24T05:52:11;98939.56;;;8.91;96.15
34586;BME280;20816;50.950;11.108;2023-05-24T05:54:38;98938.63;;;8.98;96.68
34586;BME280;20816;50.950;11.108;2023-05-24T05:57:05;98942.22;;;8.88;95.08
34586;BME280;20816;50.950;11.108;2023-05-24T05:59:33;98943.03;;;8.93;96.01
34586;BME280;20816;50.950;11.108;2023-05-24T06:02:02;98946.47;;;8.99;95.92
34586;BME280;20816;50.950;11.108;2023-05-24T06:04:29;98938.47;;;9.13;95.31
34586;BME280;20816;50.950;11.108;2023-05-24T06:06:56;98938.19;;;9.36;93.56
34586;BME280;20816;50.950;11.108;2023-05-24T06:09:23;98949.13;;;9.73;91.31
34586;BME280;20816;50.950;11.108;2023-05-24T06:11:50;98939.16;;;9.98;88.97
34586;BME280;20816;50.950;11.108;2023-05-24T06:14:17;98944.03;;;10.26;88.82
34586;BME280;20816;50.950;11.108;2023-05-24T06:16:47;98950.13;;;10.29;88.73
34586;BME280;20816;50.950;11.108;2023-05-24T06:19:14;98947.88;;;10.02;87.80
34586;BME280;20816;50.950;11.108;2023-05-24T06:21:42;98944.69;;;10.42;86.95
34586;BME280;20816;50.950;11.108;2023-05-24T06:24:14;98944.84;;;10.85;86.07
34586;BME280;20816;50.950;11.108;2023-05-24T06:26:41;98941.84;;;11.05;85.21
34586;BME280;20816;50.950;11.108;2023-05-24T06:29:08;98947.09;;;11.08;84.89
34586;BME280;20816;50.950;11.108;2023-05-24T06:31:35;98950.59;;;11.07;84.44
34586;BME280;20816;50.950;11.108;2023-05-24T06:34:02;98956.31;;;11.29;84.26
34586;BME280;20816;50.950;11.108;2023-05-24T06:36:30;98956.25;;;11.32;81.93
34586;BME280;20816;50.950;11.108;2023-05-24T06:39:01;98951.13;;;11.26;80.99
34586;BME280;20816;50.950;11.108;2023-05-24T06:41:29;98958.81;;;11.36;81.81
34586;BME280;20816;50.950;11.108;2023-05-24T06:43:56;98964.38;;;11.66;80.23
34586;BME280;20816;50.950;11.108;2023-05-24T06:46:22;98962.13;;;11.91;79.92
34586;BME280;20816;50.950;11.108;2023-05-24T06:48:49;98959.84;;;11.72;79.82
34586;BME280;20816;50.950;11.108;2023-05-24T06:51:16;98967.03;;;11.64;80.39
34586;BME280;20816;50.950;11.108;2023-05-24T06:53:43;98961.22;;;11.92;79.48
34586;BME280;20816;50.950;11.108;2023-05-24T06:56:10;98970.41;;;12.14;77.95
34586;BME280;20816;50.950;11.108;2023-05-24T06:58:36;98966.00;;;12.15;78.38
34586;BME280;20816;50.950;11.108;2023-05-24T07:01:03;98970.28;;;12.19;77.00
34586;BME280;20816;50.950;11.108;2023-05-24T07:03:30;98977.00;;;11.93;77.53
34586;BME280;20816;50.950;11.108;2023-05-24T07:05:57;98976.16;;;11.91;76.40
34586;BME280;20816;50.950;11.108;2023-05-24T07:08:24;98979.41;;;11.61;77.73
34586;BME280;20816;50.950;11.108;2023-05-24T07:10:55;98978.34;;;11.23;78.77
34586;BME280;20816;50.950;11.108;2023-05-24T07:13:22;98984.56;;;11.19;79.96
34586;BME280;20816;50.950;11.108;2023-05-24T07:15:48;98979.28;;;11.67;79.36
34586;BME280;20816;50.950;11.108;2023-05-24T07:18:15;98977.19;;;11.84;78.97
34586;BME280;20816;50.950;11.108;2023-05-24T07:20:42;98980.72;;;11.83;77.99
34586;BME280;20816;50.950;11.108;2023-05-24T07:23:09;98986.75;;;11.88;78.83
34586;BME280;20816;50.950;11.108;2023-05-24T07:25:37;98987.06;;;11.71;78.02
34586;BME280;20816;50.950;11.108;2023-05-24T07:28:04;98981.94;;;11.65;76.84
34586;BME280;20816;50.950;11.108;2023-05-24T07:30:31;98978.78;;;11.46;77.82
34586;BME280;20816;50.950;11.108;2023-05-24T07:32:58;98975.94;;;11.59;78.76
34586;BME280;20816;50.950;11.108;2023-05-24T07:35:25;98979.09;;;11.76;79.01
34586;BME280;20816;50.950;11.108;2023-05-24T07:37:55;98983.88;;;12.00;77.22
34586;BME280;20816;50.950;11.108;2023-05-24T07:40:21;98977.16;;;12.26;75.54
34586;BME280;20816;50.950;11.108;2023-05-24T07:42:48;98983.69;;;12.10;75.54
34586;BME280;20816;50.950;11.108;2023-05-24T07:45:15;98985.63;;;11.55;77.00
34586;BME280;20816;50.950;11.108;2023-05-24T07:47:42;98982.63;;;11.75;76.86
34586;BME280;20816;50.950;11.108;2023-05-24T07:50:09;98980.50;;;11.94;75.89
34586;BME280;20816;50.950;11.108;2023-05-24T07:52:37;98980.91;;;11.72;76.80
34586;BME280;20816;50.950;11.108;2023-05-24T07:55:04;98979.72;;;11.90;76.65
34586;BME280;20816;50.950;11.108;2023-05-24T07:57:32;98976.00;;;11.99;76.62
34586;BME280;20816;50.950;11.108;2023-05-24T07:59:59;98985.44;;;12.09;78.41
34586;BME280;20816;50.950;11.108;2023-05-24T08:02:32;98971.28;;;12.15;75.42
34586;BME280;20816;50.950;11.108;2023-05-24T08:05:00;98968.69;;;12.50;74.38
34586;BME280;20816;50.950;11.108;2023-05-24T08:07:27;98973.13;;;12.84;73.53
34586;BME280;20816;50.950;11.108;2023-05-24T08:09:54;98967.03;;;12.82;74.29
34586;BME280;20816;50.950;11.108;2023-05-24T08:12:20;98979.31;;;12.47;72.09
34586;BME280;20816;50.950;11.108;2023-05-24T08:14:47;98971.16;;;12.19;71.32
34586;BME280;20816;50.950;11.108;2023-05-24T08:17:14;98968.72;;;12.49;71.68
34586;BME280;20816;50.950;11.108;2023-05-24T08:19:41;98958.31;;;12.78;69.96
34586;BME280;20816;50.950;11.108;2023-05-24T08:22:07;98954.81;;;13.13;67.84
34586;BME280;20816;50.950;11.108;2023-05-24T08:24:34;98966.88;;;13.24;69.68
34586;BME280;20816;50.950;11.108;2023-05-24T08:27:01;98953.50;;;13.62;68.80
34586;BME280;20816;50.950;11.108;2023-05-24T08:29:29;98967.03;;;13.50;68.87
34586;BME280;20816;50.950;11.108;2023-05-24T08:31:56;98963.31;;;13.88;67.79
34586;BME280;20816;50.950;11.108;2023-05-24T08:34:23;98961.19;;;14.01;68.70
34586;BME280;20816;50.950;11.108;2023-05-24T08:36:50;98974.28;;;13.42;68.14
34586;BME280;20816;50.950;11.108;2023-05-24T08:39:17;98970.75;;;13.43;68.83
34586;BME280;20816;50.950;11.108;2023-05-24T08:41:43;98970.19;;;13.94;66.36
34586;BME280;20816;50.950;11.108;2023-05-24T08:44:23;98975.66;;;13.88;66.12
34586;BME280;20816;50.950;11.108;2023-05-24T08:46:51;98976.69;;;14.12;66.78
34586;BME280;20816;50.950;11.108;2023-05-24T08:49:19;98977.56;;;14.42;65.33
34586;BME280;20816;50.950;11.108;2023-05-24T08:51:47;98986.13;;;14.20;66.03
34586;BME280;20816;50.950;11.108;2023-05-24T08:54:14;98982.66;;;14.48;65.68
34586;BME280;20816;50.950;11.108;2023-05-24T08:56:42;98986.84;;;14.55;65.28
34586;BME280;20816;50.950;11.108;2023-05-24T08:59:09;98985.72;;;14.05;66.93
34586;BME280;20816;50.950;11.108;2023-05-24T09:01:38;98986.06;;;14.22;66.39
34586;BME280;20816;50.950;11.108;2023-05-24T09:04:07;98990.53;;;14.49;64.89
34586;BME280;20816;50.950;11.108;2023-05-24T09:06:34;98981.06;;;14.97;63.05
34586;BME280;20816;50.950;11.108;2023-05-24T09:09:02;98986.19;;;15.53;63.07
34586;BME280;20816;50.950;11.108;2023-05-24T09:11:30;98977.22;;;15.82;62.19
34586;BME280;20816;50.950;11.108;2023-05-24T09:13:59;98984.91;;;15.39;61.74
34586;BME280;20816;50.950;11.108;2023-05-24T09:16:26;98981.94;;;15.49;63.21
34586;BME280;20816;50.950;11.108;2023-05-24T09:18:53;98985.72;;;15.41;62.81
34586;BME280;20816;50.950;11.108;2023-05-24T09:21:20;98985.66;;;15.18;63.62
34586;BME280;20816;50.950;11.108;2023-05-24T09:23:48;98996.03;;;15.24;63.05
34586;BME280;20816;50.950;11.108;2023-05-24T09:26:14;98990.53;;;14.77;63.54
34586;BME280;20816;50.950;11.108;2023-05-24T09:28:42;98990.13;;;14.90;64.69
34586;BME280;20816;50.950;11.108;2023-05-24T09:31:09;98996.34;;;14.89;64.75
34586;BME280;20816;50.950;11.108;2023-05-24T09:33:38;99005.25;;;15.12;61.83
34586;BME280;20816;50.950;11.108;2023-05-24T09:36:05;98989.41;;;15.62;61.14
34586;BME280;20816;50.950;11.108;2023-05-24T09:38:32;98986.97;;;15.81;60.41
34586;BME280;20816;50.950;11.108;2023-05-24T09:41:06;98979.97;;;15.79;61.40
34586;BME280;20816;50.950;11.108;2023-05-24T09:43:46;98984.13;;;15.11;64.14
34586;BME280;20816;50.950;11.108;2023-05-24T09:46:17;98982.47;;;14.54;64.48
34586;BME280;20816;50.950;11.108;2023-05-24T09:48:55;98983.22;;;14.85;63.38
34586;BME280;20816;50.950;11.108;2023-05-24T09:51:23;98973.13;;;15.23;63.96
34586;BME280;20816;50.950;11.108;2023-05-24T09:53:50;98959.28;;;16.12;61.96
34586;BME280;20816;50.950;11.108;2023-05-24T09:56:18;98975.81;;;15.47;61.19
34586;BME280;20816;50.950;11.108;2023-05-24T09:58:45;98968.16;;;15.87;61.63
34586;BME280;20816;50.950;11.108;2023-05-24T10:01:12;98969.50;;;15.51;60.69
34586;BME280;20816;50.950;11.108;2023-05-24T10:03:56;98965.47;;;15.14;60.79
34586;BME280;20816;50.950;11.108;2023-05-24T10:06:24;98973.94;;;15.25;60.73
34586;BME280;20816;50.950;11.108;2023-05-24T10:08:51;98974.41;;;15.36;61.12
34586;BME280;20816;50.950;11.108;2023-05-24T10:11:19;98974.28;;;15.14;61.15
34586;BME280;20816;50.950;11.108;2023-05-24T10:13:47;98983.72;;;14.41;63.20
34586;BME280;20816;50.950;11.108;2023-05-24T10:16:15;98980.34;;;13.78;65.72
34586;BME280;20816;50.950;11.108;2023-05-24T10:18:42;98982.94;;;13.80;65.15
34586;BME280;20816;50.950;11.108;2023-05-24T10:21:09;98985.84;;;13.38;65.93
34586;BME280;20816;50.950;11.108;2023-05-24T10:23:37;98992.53;;;13.51;66.91
34586;BME280;20816;50.950;11.108;2023-05-24T10:26:09;98992.69;;;13.11;67.11
34586;BME280;20816;50.950;11.108;2023-05-24T10:28:49;98994.78;;;13.96;65.70
34586;BME280;20816;50.950;11.108;2023-05-24T10:31:23;98993.69;;;14.32;64.03
34586;BME280;20816;50.950;11.108;2023-05-24T10:33:52;98991.03;;;14.32;66.59
34586;BME280;20816;50.950;11.108;2023-05-24T10:36:33;98996.00;;;13.84;66.36
34586;BME280;20816;50.950;11.108;2023-05-24T10:39:00;98991.69;;;14.11;67.94
34586;BME280;20816;50.950;11.108;2023-05-24T10:41:27;98993.50;;;13.80;67.45
34586;BME280;20816;50.950;11.108;2023-05-24T10:43:56;98989.84;;;13.84;67.28
34586;BME280;20816;50.950;11.108;2023-05-24T10:46:35;98986.16;;;14.50;67.60
34586;BME280;20816;50.950;11.108;2023-05-24T10:49:02;98991.94;;;14.31;66.64
34586;BME280;20816;50.950;11.108;2023-05-24T10:51:37;98988.50;;;14.85;64.63
34586;BME280;20816;50.950;11.108;2023-05-24T10:54:15;98990.16;;;15.14;63.11
34586;BME280;20816;50.950;11.108;2023-05-24T10:56:47;98986.53;;;15.43;64.80
34586;BME280;20816;50.950;11.108;2023-05-24T10:59:22;98986.84;;;15.59;62.49
34586;BME280;20816;50.950;11.108;2023-05-24T11:01:58;98976.22;;;16.31;60.55
34586;BME280;20816;50.950;11.108;2023-05-24T11:04:30;98981.25;;;16.15;61.12
34586;BME280;20816;50.950;11.108;2023-05-24T11:09:29;98985.69;;;16.15;61.12
34586;BME280;20816;50.950;11.108;2023-05-24T11:12:02;98985.34;;;16.24;62.01
34586;BME280;20816;50.950;11.108;2023-05-24T11:14:30;98990.97;;;15.68;61.00
34586;BME280;20816;50.950;11.108;2023-05-24T11:16:58;98984.72;;;15.94;61.80
34586;BME280;20816;50.950;11.108;2023-05-24T11:19:33;98995.06;;;15.52;61.76
34586;BME280;20816;50.950;11.108;2023-05-24T11:22:07;98991.38;;;16.06;59.36
34586;BME280;20816;50.950;11.108;2023-05-24T11:24:34;98992.28;;;15.81;60.86
34586;BME280;20816;50.950;11.108;2023-05-24T11:27:01;98993.44;;;15.97;61.77
34586;BME280;20816;50.950;11.108;2023-05-24T11:29:29;98998.09;;;15.14;62.85
34586;BME280;20816;50.950;11.108;2023-05-24T11:31:59;98998.16;;;15.13;64.60
34586;BME280;20816;50.950;11.108;2023-05-24T11:34:33;98992.41;;;15.52;62.36
34586;BME280;20816;50.950;11.108;2023-05-24T11:37:01;98988.78;;;15.79;61.29
34586;BME280;20816;50.950;11.108;2023-05-24T11:39:30;98982.19;;;17.03;62.35
34586;BME280;20816;50.950;11.108;2023-05-24T11:41:58;98985.66;;;17.87;59.02
34586;BME280;20816;50.950;11.108;2023-05-24T11:44:28;98984.22;;;18.55;55.23
34586;BME280;20816;50.950;11.108;2023-05-24T11:47:00;98985.03;;;18.57;56.14
34586;BME280;20816;50.950;11.108;2023-05-24T11:49:27;98974.81;;;19.72;53.46
34586;BME280;20816;50.950;11.108;2023-05-24T11:51:56;98984.22;;;19.10;54.54
34586;BME280;20816;50.950;11.108;2023-05-24T11:54:24;98975.44;;;19.08;54.28
34586;BME280;20816;50.950;11.108;2023-05-24T11:56:52;98976.38;;;18.52;55.99
34586;BME280;20816;50.950;11.108;2023-05-24T11:59:24;98981.22;;;18.44;54.79
34586;BME280;20816;50.950;11.108;2023-05-24T12:01:59;98978.19;;;17.95;56.33
34586;BME280;20816;50.950;11.108;2023-05-24T12:04:27;98970.34;;;16.90;56.40
34586;BME280;20816;50.950;11.108;2023-05-24T12:06:55;98974.31;;;18.02;56.68
34586;BME280;20816;50.950;11.108;2023-05-24T12:09:23;98971.91;;;18.71;54.12
34586;BME280;20816;50.950;11.108;2023-05-24T12:11:51;98968.06;;;19.13;54.80
34586;BME280;20816;50.950;11.108;2023-05-24T12:14:28;98958.41;;;19.80;53.03
34586;BME280;20816;50.950;11.108;2023-05-24T12:16:58;98958.88;;;19.36;54.32
34586;BME280;20816;50.950;11.108;2023-05-24T12:19:30;98967.19;;;18.21;55.02
34586;BME280;20816;50.950;11.108;2023-05-24T12:22:05;98969.72;;;18.25;56.06
34586;BME280;20816;50.950;11.108;2023-05-24T12:24:33;98962.13;;;17.78;54.73
34586;BME280;20816;50.950;11.108;2023-05-24T12:27:02;98962.72;;;17.64;54.43
34586;BME280;20816;50.950;11.108;2023-05-24T12:29:39;98967.31;;;18.00;54.96
34586;BME280;20816;50.950;11.108;2023-05-24T12:32:10;98967.19;;;17.43;57.80
34586;BME280;20816;50.950;11.108;2023-05-24T12:34:43;98958.72;;;17.74;55.71
34586;BME280;20816;50.950;11.108;2023-05-24T12:37:11;98961.38;;;18.13;54.34
34586;BME280;20816;50.950;11.108;2023-05-24T12:39:39;98956.72;;;18.18;54.41
34586;BME280;20816;50.950;11.108;2023-05-24T12:42:10;98961.06;;;18.38;55.16
34586;BME280;20816;50.950;11.108;2023-05-24T12:44:39;98953.31;;;16.74;57.27
34586;BME280;20816;50.950;11.108;2023-05-24T12:47:06;98952.53;;;16.48;58.21
34586;BME280;20816;50.950;11.108;2023-05-24T12:49:34;98949.28;;;16.64;58.96
34586;BME280;20816;50.950;11.108;2023-05-24T12:52:01;98947.63;;;16.83;57.71
34586;BME280;20816;50.950;11.108;2023-05-24T12:54:28;98947.06;;;16.97;56.62
34586;BME280;20816;50.950;11.108;2023-05-24T12:56:56;98939.84;;;16.57;60.52
34586;BME280;20816;50.950;11.108;2023-05-24T12:59:24;98946.00;;;16.13;62.66
34586;BME280;20816;50.950;11.108;2023-05-24T13:01:50;98956.97;;;15.79;62.16
34586;BME280;20816;50.950;11.108;2023-05-24T13:04:19;98951.59;;;15.82;62.11
34586;BME280;20816;50.950;11.108;2023-05-24T13:06:46;98946.72;;;15.93;61.06
34586;BME280;20816;50.950;11.108;2023-05-24T13:09:14;98953.66;;;16.21;59.92